createdAt,value
2019-06-26T00:04:19.835Z,50.17
2019-06-26T00:09:24.135Z,48.52
2019-06-26T00:14:28.446Z,45.35
2019-06-26T00:19:32.758Z,44.10
2019-06-26T00:24:37.146Z,42.00
2019-06-26T00:29:41.451Z,41.53
2019-06-26T00:34:45.794Z,39.20
2019-06-26T00:39:50.086Z,37.53
2019-06-26T00:44:54.402Z,36.38
2019-06-26T00:49:58.720Z,35.17
2019-06-26T00:55:03.185Z,40.60
2019-06-26T01:00:10.064Z,34.43
2019-06-26T01:05:16.287Z,32.40
2019-06-26T01:10:20.920Z,30.68
2019-06-26T01:15:25.230Z,30.50
2019-06-26T01:20:29.537Z,30.12
2019-06-26T01:25:33.844Z,30.30
2019-06-26T01:30:38.149Z,30.92
2019-06-26T01:35:42.458Z,31.33
2019-06-26T01:40:46.941Z,30.90
2019-06-26T01:45:51.262Z,31.62
2019-06-26T01:50:55.648Z,33.55
2019-06-26T01:55:59.978Z,32.60
2019-06-26T02:01:04.299Z,31.33
2019-06-26T02:06:08.612Z,32.45
2019-06-26T02:11:12.916Z,34.67
2019-06-26T02:16:17.216Z,34.98
2019-06-26T02:21:21.592Z,37.70
2019-06-26T02:26:25.903Z,38.53
2019-06-26T02:31:30.202Z,37.08
2019-06-26T02:36:34.517Z,40.85
2019-06-26T02:41:38.818Z,40.63
2019-06-26T02:46:43.136Z,42.20
2019-06-26T02:51:47.437Z,41.58
2019-06-26T02:56:51.740Z,42.35
2019-06-26T03:01:56.056Z,43.35
2019-06-26T03:07:00.374Z,42.00
2019-06-26T03:12:04.740Z,40.73
2019-06-26T03:17:09.047Z,41.28
2019-06-26T03:22:13.364Z,42.55
2019-06-26T03:27:17.680Z,41.53
2019-06-26T03:32:21.983Z,39.95
2019-06-26T03:37:26.976Z,39.63
2019-06-26T03:42:31.260Z,38.25
2019-06-26T03:47:35.588Z,41.02
2019-06-26T03:52:39.892Z,42.45
2019-06-26T03:57:44.202Z,44.33
2019-06-26T04:02:48.504Z,43.78
2019-06-26T04:07:52.810Z,44.93
2019-06-26T04:12:57.114Z,44.77
2019-06-26T04:18:01.418Z,44.18
2019-06-26T04:23:05.718Z,45.00
2019-06-26T04:28:10.027Z,45.20
2019-06-26T04:33:14.323Z,46.45
2019-06-26T04:38:18.627Z,49.83
2019-06-26T04:43:22.941Z,53.80
2019-06-26T04:48:27.227Z,52.80
2019-06-26T04:53:31.539Z,53.90
2019-06-26T04:58:35.836Z,54.30
2019-06-26T05:03:40.142Z,55.73
2019-06-26T05:08:44.456Z,55.05
2019-06-26T05:13:48.759Z,55.58
2019-06-26T05:18:53.082Z,56.35
2019-06-26T05:23:57.385Z,57.85
2019-06-26T05:29:01.694Z,58.10
2019-06-26T05:34:06.000Z,56.80
2019-06-26T05:39:10.482Z,56.30
2019-06-26T05:44:14.795Z,55.28
2019-06-26T05:49:19.103Z,54.42
2019-06-26T05:54:23.437Z,54.15
2019-06-26T05:59:27.746Z,51.00
2019-06-26T06:04:32.050Z,50.17
2019-06-26T06:09:36.516Z,46.77
2019-06-26T06:14:40.986Z,45.00
2019-06-26T06:19:45.574Z,42.00
2019-06-26T06:24:50.082Z,39.75
2019-06-26T06:29:54.393Z,38.50
2019-06-26T06:34:58.702Z,38.28
2019-06-26T06:40:03.288Z,39.53
2019-06-26T06:45:08.301Z,38.83
2019-06-26T06:50:12.883Z,36.80
2019-06-26T06:55:17.439Z,37.00
2019-06-26T07:00:22.163Z,34.65
2019-06-26T07:05:26.485Z,33.60
2019-06-26T07:10:30.798Z,33.00
2019-06-26T07:15:35.105Z,31.90
2019-06-26T07:20:39.416Z,32.38
2019-06-26T07:25:43.731Z,33.90
2019-06-26T07:30:48.079Z,32.50
2019-06-26T07:35:52.391Z,36.05
2019-06-26T07:40:56.717Z,34.85
2019-06-26T07:46:01.564Z,36.85
2019-06-26T07:51:05.874Z,32.95
2019-06-26T07:56:10.249Z,31.95
2019-06-26T08:01:14.567Z,31.87
2019-06-26T08:06:18.873Z,32.50
2019-06-26T08:11:23.295Z,29.90
2019-06-26T08:16:27.611Z,31.90
2019-06-26T08:21:31.930Z,31.80
2019-06-26T08:26:36.248Z,32.40
2019-06-26T08:31:40.546Z,32.75
2019-06-26T08:36:44.860Z,32.33
2019-06-26T08:41:49.169Z,32.85
2019-06-26T08:46:53.478Z,32.70
2019-06-26T08:51:58.512Z,34.15
2019-06-26T08:57:02.808Z,32.60
2019-06-26T09:02:07.383Z,32.08
2019-06-26T09:07:11.690Z,32.55
2019-06-26T09:12:16.003Z,33.23
2019-06-26T09:17:20.419Z,33.13
2019-06-26T09:22:25.514Z,35.08
2019-06-26T09:27:29.818Z,33.02
2019-06-26T09:32:34.130Z,34.03
2019-06-26T09:37:38.446Z,35.78
2019-06-26T09:42:42.754Z,33.33
2019-06-26T09:47:47.058Z,29.65
2019-06-26T09:52:51.375Z,29.57
2019-06-26T09:57:55.688Z,45.48
2019-06-26T10:03:00.062Z,40.50
2019-06-26T10:08:04.476Z,35.75
2019-06-26T10:13:08.792Z,33.05
2019-06-26T10:18:13.210Z,32.10
2019-06-26T10:23:17.507Z,31.00
2019-06-26T10:28:21.920Z,31.23
2019-06-26T10:33:26.442Z,32.23
2019-06-26T10:38:30.741Z,32.17
2019-06-26T10:43:35.056Z,33.25
2019-06-26T10:48:39.389Z,34.92
2019-06-26T10:53:43.689Z,37.13
2019-06-26T10:58:48.185Z,38.50
2019-06-26T11:03:52.684Z,40.73
2019-06-26T11:08:57.013Z,45.03
2019-06-26T11:14:01.311Z,44.88
2019-06-26T11:19:05.870Z,43.25
2019-06-26T11:24:12.535Z,44.33
2019-06-26T11:29:16.464Z,43.43
2019-06-26T11:34:20.780Z,43.02
2019-06-26T11:39:25.280Z,43.13
2019-06-26T11:44:29.574Z,39.65
2019-06-26T11:49:33.897Z,39.92
2019-06-26T11:54:38.210Z,49.40
2019-06-26T11:59:42.510Z,50.00
2019-06-26T12:04:46.812Z,51.45
2019-06-26T12:09:51.806Z,50.55
2019-06-26T12:14:56.166Z,51.40
2019-06-26T12:20:17.025Z,49.98
2019-06-26T12:25:07.591Z,47.17
2019-06-26T12:30:12.435Z,44.50
2019-06-26T12:35:17.017Z,44.48
2019-06-26T12:40:22.222Z,35.48
2019-06-26T12:45:26.530Z,37.42
2019-06-26T12:50:35.932Z,34.78
2019-06-26T12:55:36.868Z,35.30
2019-06-26T13:00:41.243Z,30.95
2019-06-26T13:05:45.555Z,27.58
2019-06-26T13:10:50.590Z,25.32
2019-06-26T13:15:55.047Z,23.45
2019-06-26T13:20:59.415Z,23.67
2019-06-26T13:26:03.696Z,21.82
2019-06-26T13:31:08.018Z,19.27
2019-06-26T13:36:12.315Z,25.08
2019-06-26T13:41:16.640Z,25.72
2019-06-26T13:46:20.961Z,22.60
2019-06-26T13:51:27.089Z,25.20
2019-06-26T13:56:31.665Z,22.20
2019-06-26T14:01:35.980Z,23.77
2019-06-26T14:06:40.287Z,23.83
2019-06-26T14:11:44.593Z,22.60
2019-06-26T14:16:48.906Z,20.60
2019-06-26T14:21:53.218Z,21.02
2019-06-26T14:26:57.544Z,18.85
2019-06-26T14:32:01.871Z,16.00
2019-06-26T14:37:06.159Z,16.55
2019-06-26T14:42:10.489Z,15.40
2019-06-26T14:47:14.798Z,14.33
2019-06-26T14:52:19.118Z,13.70
2019-06-26T14:57:25.978Z,13.00
2019-06-26T15:02:31.951Z,12.23
2019-06-26T15:07:35.816Z,10.40
2019-06-26T15:12:40.063Z,9.68
2019-06-26T15:17:45.986Z,10.25
2019-06-26T15:22:50.275Z,7.42
2019-06-26T15:27:54.584Z,7.97
2019-06-26T15:32:58.894Z,7.90
2019-06-26T15:38:04.004Z,7.83
2019-06-26T15:43:08.322Z,5.35
2019-06-26T15:48:12.644Z,4.75
2019-06-26T15:53:17.010Z,4.70
2019-06-26T15:58:21.331Z,4.17
2019-06-26T16:03:25.808Z,4.53
2019-06-26T16:08:30.149Z,4.10
2019-06-26T16:13:34.531Z,3.60
2019-06-26T16:18:43.342Z,3.17
2019-06-26T16:23:47.642Z,3.67
2019-06-26T16:28:51.999Z,3.50
2019-06-26T16:33:56.307Z,3.80
2019-06-26T16:39:00.614Z,3.30
2019-06-26T16:44:06.030Z,4.00
2019-06-26T16:49:10.341Z,4.00
2019-06-26T16:54:14.826Z,3.15
2019-06-26T16:59:19.165Z,3.75
2019-06-26T17:04:23.458Z,2.90
2019-06-26T17:09:27.799Z,2.60
2019-06-26T17:14:32.191Z,2.20
2019-06-26T17:19:36.493Z,2.00
2019-06-26T17:24:40.795Z,1.85
2019-06-26T17:29:45.112Z,1.90
2019-06-26T17:34:49.487Z,2.60
2019-06-26T17:39:53.810Z,2.60
2019-06-26T17:44:58.282Z,2.20
2019-06-26T17:50:02.615Z,2.70
2019-06-26T17:55:10.351Z,2.60
2019-06-26T18:00:15.298Z,2.30
2019-06-26T18:05:19.575Z,2.17
2019-06-26T18:10:23.890Z,2.83
2019-06-26T18:15:28.193Z,2.98
2019-06-26T18:20:32.506Z,2.50
2019-06-26T18:25:36.818Z,1.95
2019-06-26T18:30:41.125Z,2.40
2019-06-26T18:35:46.963Z,2.17
2019-06-26T18:40:51.265Z,2.52
2019-06-26T18:45:55.575Z,2.70
2019-06-26T18:50:59.882Z,2.05
2019-06-26T18:56:04.358Z,2.25
2019-06-26T19:01:08.671Z,2.30
2019-06-26T19:06:12.981Z,3.60
2019-06-26T19:11:17.919Z,2.70
2019-06-26T19:16:22.229Z,2.80
2019-06-26T19:21:26.534Z,2.45
2019-06-26T19:26:30.857Z,2.47
2019-06-26T19:31:35.173Z,2.92
2019-06-26T19:36:49.671Z,3.40
2019-06-26T19:41:45.528Z,3.00
2019-06-26T19:46:49.835Z,3.35
2019-06-26T19:51:54.150Z,4.37
2019-06-26T19:56:58.710Z,3.00
2019-06-26T20:02:03.080Z,2.33
2019-06-26T20:07:07.346Z,2.42
2019-06-26T20:12:11.654Z,3.35
2019-06-26T20:17:16.035Z,3.65
2019-06-26T20:22:20.338Z,2.50
2019-06-26T20:27:24.912Z,2.87
2019-06-26T20:32:29.228Z,3.10
2019-06-26T20:37:33.528Z,2.37
2019-06-26T20:42:37.835Z,3.00
2019-06-26T20:47:42.145Z,2.62
2019-06-26T20:52:46.451Z,2.60
2019-06-26T20:57:50.766Z,2.65
2019-06-26T21:02:55.066Z,2.25
2019-06-26T21:07:59.700Z,2.65
2019-06-26T21:13:04.267Z,2.35
2019-06-26T21:18:08.626Z,2.72
2019-06-26T21:23:18.787Z,3.00
2019-06-26T21:28:18.969Z,2.77
2019-06-26T21:33:23.281Z,2.27
2019-06-26T21:38:27.574Z,2.75
2019-06-26T21:43:31.882Z,2.12
2019-06-26T21:48:36.190Z,2.37
2019-06-26T21:53:40.497Z,2.77
2019-06-26T21:58:45.557Z,2.22
2019-06-26T22:03:49.850Z,2.42
2019-06-26T22:08:54.186Z,1.98
2019-06-26T22:13:58.488Z,2.22
2019-06-26T22:19:02.795Z,1.92
2019-06-26T22:24:07.106Z,2.42
2019-06-26T22:29:11.436Z,2.15
2019-06-26T22:34:15.718Z,2.00
2019-06-26T22:39:20.022Z,2.60
2019-06-26T22:44:24.335Z,2.22
2019-06-26T22:49:28.684Z,2.08
2019-06-26T22:54:32.950Z,2.20
2019-06-26T22:59:37.259Z,2.47
2019-06-26T23:04:41.559Z,2.25
2019-06-26T23:09:45.872Z,2.60
2019-06-26T23:14:50.165Z,2.30
2019-06-26T23:19:54.476Z,2.15
2019-06-26T23:24:58.791Z,2.62
2019-06-26T23:30:03.563Z,2.55
2019-06-26T23:35:08.040Z,2.10
2019-06-26T23:40:12.620Z,2.42
2019-06-26T23:45:17.527Z,2.40
2019-06-26T23:50:21.826Z,2.62
2019-06-26T23:55:26.136Z,2.90
